createdAt,value
2022-08-20T00:02:15.411Z,101498.13
2022-08-20T00:04:44.105Z,101498.13
2022-08-20T00:07:13.676Z,101493.66
2022-08-20T00:09:43.137Z,101485.69
2022-08-20T00:12:15.919Z,101481.28
2022-08-20T00:14:44.508Z,101489.28
2022-08-20T00:17:12.862Z,101486.59
2022-08-20T00:19:41.237Z,101488.34
2022-08-20T00:22:09.716Z,101491.03
2022-08-20T00:24:38.094Z,101482.13
2022-08-20T00:27:06.470Z,101483.94
2022-08-20T00:29:34.812Z,101495.50
2022-08-20T00:32:03.504Z,101498.13
2022-08-20T00:34:31.861Z,101491.03
2022-08-20T00:37:00.447Z,101492.81
2022-08-20T00:39:28.996Z,101492.81
2022-08-20T00:41:57.483Z,101491.09
2022-08-20T00:44:26.916Z,101492.00
2022-08-20T00:46:55.484Z,101494.72
2022-08-20T00:49:30.594Z,101484.97
2022-08-20T00:52:09.928Z,101492.13
2022-08-20T00:54:41.521Z,101479.72
2022-08-20T00:57:22.434Z,101489.47
2022-08-20T00:59:59.344Z,101493.09
2022-08-20T01:02:30.170Z,101486.94
2022-08-20T01:05:05.114Z,101486.06
2022-08-20T01:07:34.952Z,101492.31
2022-08-20T01:10:07.230Z,101483.47
2022-08-20T01:12:37.602Z,101487.97
2022-08-20T01:15:09.283Z,101488.00
2022-08-20T01:17:41.758Z,101486.28
2022-08-20T01:20:15.068Z,101487.22
2022-08-20T01:23:20.227Z,101484.59
2022-08-20T01:26:17.877Z,101481.94
2022-08-20T01:28:56.316Z,101483.78
2022-08-20T01:31:31.939Z,101490.06
2022-08-20T01:34:02.504Z,101493.63
2022-08-20T01:36:34.566Z,101481.25
2022-08-20T01:39:06.731Z,101495.53
2022-08-20T01:42:09.113Z,101491.09
2022-08-20T01:44:39.674Z,101496.47
2022-08-20T01:47:10.199Z,101495.59
2022-08-20T01:49:44.211Z,101501.03
2022-08-20T01:52:30.926Z,101491.25
2022-08-20T01:55:00.277Z,101498.28
2022-08-20T01:57:29.822Z,101496.56
2022-08-20T01:59:58.369Z,101498.38
2022-08-20T02:02:27.792Z,101500.13
2022-08-20T02:04:57.234Z,101493.97
2022-08-20T02:07:27.020Z,101503.75
2022-08-20T02:09:55.603Z,101493.13
2022-08-20T02:12:24.066Z,101491.44
2022-08-20T02:14:54.916Z,101504.84
2022-08-20T02:17:26.038Z,101504.00
2022-08-20T02:20:02.617Z,101504.91
2022-08-20T02:22:49.265Z,101509.41
2022-08-20T02:25:22.877Z,101509.47
2022-08-20T02:27:53.269Z,101518.47
2022-08-20T02:30:30.363Z,101514.09
2022-08-20T02:33:00.134Z,101521.25
2022-08-20T02:35:30.450Z,101525.75
2022-08-20T02:38:00.390Z,101514.25
2022-08-20T02:40:33.270Z,101525.88
2022-08-20T02:43:02.956Z,101525.03
2022-08-20T02:45:38.453Z,101531.31
2022-08-20T02:48:07.120Z,101523.31
2022-08-20T02:50:35.672Z,101522.47
2022-08-20T02:53:04.100Z,101523.44
2022-08-20T02:55:33.470Z,101519.06
2022-08-20T02:58:01.900Z,101526.19
2022-08-20T03:00:37.997Z,101520.91
2022-08-20T03:03:10.375Z,101519.22
2022-08-20T03:05:41.746Z,101518.41
2022-08-20T03:08:13.048Z,101514.03
2022-08-20T03:10:44.278Z,101526.53
2022-08-20T03:13:14.237Z,101527.44
2022-08-20T03:15:46.556Z,101533.72
2022-08-20T03:18:16.176Z,101531.09
2022-08-20T03:20:46.176Z,101537.34
2022-08-20T03:23:21.889Z,101528.53
2022-08-20T03:25:51.103Z,101537.47
2022-08-20T03:28:20.349Z,101534.81
2022-08-20T03:30:48.748Z,101541.94
2022-08-20T03:33:17.736Z,101541.97
2022-08-20T03:35:47.151Z,101541.13
2022-08-20T03:38:17.836Z,101546.53
2022-08-20T03:40:53.438Z,101538.56
2022-08-20T03:43:21.719Z,101542.16
2022-08-20T03:45:50.775Z,101551.94
2022-08-20T03:48:21.710Z,101551.97
2022-08-20T03:50:51.509Z,101553.75
2022-08-20T03:53:21.083Z,101552.00
2022-08-20T03:55:54.110Z,101548.50
2022-08-20T03:58:34.757Z,101548.56
2022-08-20T04:01:06.658Z,101553.03
2022-08-20T04:03:38.482Z,101551.31
2022-08-20T04:06:07.406Z,101550.47
2022-08-20T04:08:35.798Z,101552.28
2022-08-20T04:11:04.115Z,101546.09
2022-08-20T04:13:37.991Z,101559.41
2022-08-20T04:16:11.749Z,101555.00
2022-08-20T04:19:01.669Z,101556.75
2022-08-20T04:21:33.458Z,101562.06
2022-08-20T04:24:05.262Z,101557.66
2022-08-20T04:26:36.443Z,101561.22
2022-08-20T04:29:05.168Z,101563.88
2022-08-20T04:31:34.898Z,101564.78
2022-08-20T04:34:08.040Z,101575.44
2022-08-20T04:36:36.789Z,101569.25
2022-08-20T04:39:05.417Z,101571.91
2022-08-20T04:41:33.749Z,101575.47
2022-08-20T04:44:02.336Z,101571.06
2022-08-20T04:46:32.650Z,101579.91
2022-08-20T04:49:03.419Z,101579.91
2022-08-20T04:51:33.430Z,101578.13
2022-08-20T04:54:03.317Z,101590.56
2022-08-20T04:56:38.651Z,101595.88
2022-08-20T04:59:08.187Z,101585.25
2022-08-20T05:01:36.728Z,101588.81
2022-08-20T05:04:05.216Z,101594.13
2022-08-20T05:06:34.092Z,101595.88
2022-08-20T05:09:02.567Z,101605.63
2022-08-20T05:11:35.254Z,101597.59
2022-08-20T05:14:08.571Z,101598.50
2022-08-20T05:16:39.571Z,101600.25
2022-08-20T05:19:09.804Z,101595.84
2022-08-20T05:21:38.838Z,101603.81
2022-08-20T05:24:07.903Z,101607.38
2022-08-20T05:26:37.376Z,101596.72
2022-08-20T05:29:06.892Z,101606.50
2022-08-20T05:31:35.676Z,101609.09
2022-08-20T05:34:10.000Z,101594.06
2022-08-20T05:36:42.796Z,101602.88
2022-08-20T05:39:13.395Z,101606.41
2022-08-20T05:41:41.756Z,101609.94
2022-08-20T05:44:13.370Z,101609.03
2022-08-20T05:46:45.295Z,101610.81
2022-08-20T05:49:17.071Z,101617.88
2022-08-20T05:51:46.750Z,101623.19
2022-08-20T05:54:15.569Z,101621.44
2022-08-20T05:56:43.891Z,101618.78
2022-08-20T05:59:14.044Z,101622.31
2022-08-20T06:01:43.387Z,101618.72
2022-08-20T06:04:28.752Z,101619.59
2022-08-20T06:07:03.167Z,101627.53
2022-08-20T06:09:34.326Z,101628.34
2022-08-20T06:12:07.837Z,101623.00
2022-08-20T06:14:36.930Z,101630.94
2022-08-20T06:17:08.650Z,101628.19
2022-08-20T06:19:39.812Z,101621.84
2022-08-20T06:22:18.803Z,101624.44
2022-08-20T06:24:50.743Z,101627.91
2022-08-20T06:27:20.871Z,101623.34
2022-08-20T06:29:49.926Z,101626.78
2022-08-20T06:32:31.854Z,101631.06
2022-08-20T06:35:03.861Z,101636.25
2022-08-20T06:37:36.600Z,101629.84
2022-08-20T06:40:13.169Z,101629.50
2022-08-20T06:42:47.832Z,101624.75
2022-08-20T06:45:25.976Z,101629.00
2022-08-20T06:47:58.488Z,101620.09
2022-08-20T06:50:33.068Z,101624.47
2022-08-20T06:53:01.487Z,101627.91
2022-08-20T06:55:32.895Z,101619.84
2022-08-20T06:58:22.250Z,101629.53
2022-08-20T07:01:04.501Z,101620.47
2022-08-20T07:03:42.065Z,101623.03
2022-08-20T07:06:21.425Z,101623.75
2022-08-20T07:08:49.812Z,101630.72
2022-08-20T07:11:27.986Z,101632.34
2022-08-20T07:13:59.173Z,101627.66
2022-08-20T07:16:27.770Z,101633.75
2022-08-20T07:19:05.833Z,101631.81
2022-08-20T07:21:34.902Z,101634.31
2022-08-20T07:24:05.516Z,101635.00
2022-08-20T07:26:34.578Z,101641.19
2022-08-20T07:29:03.417Z,101648.19
2022-08-20T07:31:50.549Z,101649.69
2022-08-20T07:34:19.651Z,101646.84
2022-08-20T07:37:00.861Z,101647.56
2022-08-20T07:39:35.888Z,101646.53
2022-08-20T07:42:09.887Z,101658.09
2022-08-20T07:44:39.107Z,101662.53
2022-08-20T07:47:07.510Z,101658.16
2022-08-20T07:49:40.188Z,101665.22
2022-08-20T07:52:08.630Z,101662.56
2022-08-20T07:54:40.813Z,101666.06
2022-08-20T07:57:11.484Z,101668.69
2022-08-20T07:59:40.712Z,101672.06
2022-08-20T08:02:09.234Z,101666.56
2022-08-20T08:04:39.518Z,101671.69
2022-08-20T08:07:08.264Z,101675.09
2022-08-20T08:09:37.275Z,101679.28
2022-08-20T08:12:05.997Z,101676.44
2022-08-20T08:14:36.373Z,101677.22
2022-08-20T08:17:05.667Z,101677.22
2022-08-20T08:19:39.248Z,101682.59
2022-08-20T08:22:12.242Z,101677.19
2022-08-20T08:24:42.080Z,101681.56
2022-08-20T08:27:33.109Z,101679.75
2022-08-20T08:30:03.063Z,101671.78
2022-08-20T08:32:32.908Z,101670.00
2022-08-20T08:35:07.527Z,101672.69
2022-08-20T08:37:42.331Z,101672.53
2022-08-20T08:40:13.099Z,101667.84
2022-08-20T08:42:48.896Z,101664.00
2022-08-20T08:45:19.958Z,101668.13
2022-08-20T08:47:49.146Z,101670.63
2022-08-20T08:50:52.865Z,101674.19
2022-08-20T08:53:38.542Z,101674.09
2022-08-20T08:56:10.039Z,101675.63
2022-08-20T08:58:38.614Z,101675.38
2022-08-20T09:01:55.020Z,101677.94
2022-08-20T09:04:05.988Z,101673.97
2022-08-20T09:06:35.459Z,101688.81
2022-08-20T09:09:06.592Z,101686.75
2022-08-20T09:11:53.107Z,101691.00
2022-08-20T09:14:25.679Z,101688.28
2022-08-20T09:16:54.298Z,101694.25
2022-08-20T09:19:26.636Z,101695.84
2022-08-20T09:21:56.126Z,101689.72
2022-08-20T09:24:24.941Z,101698.06
2022-08-20T09:26:53.343Z,101699.06
2022-08-20T09:29:21.794Z,101701.75
2022-08-20T09:31:50.170Z,101697.28
2022-08-20T09:34:18.775Z,101697.16
2022-08-20T09:36:47.247Z,101692.59
2022-08-20T09:39:16.102Z,101695.09
2022-08-20T09:41:47.598Z,101686.88
2022-08-20T09:44:16.726Z,101691.53
2022-08-20T09:46:51.123Z,101696.16
2022-08-20T09:49:25.969Z,101699.94
2022-08-20T09:51:56.261Z,101697.41
2022-08-20T09:54:28.937Z,101697.25
2022-08-20T09:56:59.153Z,101696.94
2022-08-20T09:59:30.611Z,101701.91
2022-08-20T10:01:59.150Z,101702.22
2022-08-20T10:04:28.823Z,101698.09
2022-08-20T10:06:57.350Z,101706.78
2022-08-20T10:09:28.752Z,101707.91
2022-08-20T10:11:57.483Z,101709.28
2022-08-20T10:14:27.979Z,101704.31
2022-08-20T10:16:59.231Z,101701.19
2022-08-20T10:19:32.179Z,101709.75
2022-08-20T10:22:01.249Z,101704.84
2022-08-20T10:24:31.395Z,101711.19
2022-08-20T10:27:01.024Z,101715.34
2022-08-20T10:29:30.459Z,101705.81
2022-08-20T10:32:12.528Z,101707.84
2022-08-20T10:34:43.806Z,101699.50
2022-08-20T10:37:24.192Z,101711.88
2022-08-20T10:39:56.099Z,101706.75
2022-08-20T10:42:26.534Z,101708.00
2022-08-20T10:44:54.932Z,101713.56
2022-08-20T10:47:33.106Z,101714.13
2022-08-20T10:50:05.580Z,101713.75
2022-08-20T10:52:35.027Z,101716.75
2022-08-20T10:55:04.913Z,101723.16
2022-08-20T10:57:34.047Z,101720.69
2022-08-20T11:00:04.111Z,101718.44
2022-08-20T11:02:33.616Z,101725.78
2022-08-20T11:05:04.261Z,101720.47
2022-08-20T11:07:50.531Z,101716.88
2022-08-20T11:10:27.383Z,101714.94
2022-08-20T11:12:55.762Z,101718.44
2022-08-20T11:15:24.264Z,101717.50
2022-08-20T11:17:53.311Z,101715.63
2022-08-20T11:20:26.349Z,101722.81
2022-08-20T11:22:58.791Z,101726.34
2022-08-20T11:25:28.005Z,101716.44
2022-08-20T11:27:58.866Z,101728.19
2022-08-20T11:30:30.650Z,101724.56
2022-08-20T11:33:00.446Z,101732.16
2022-08-20T11:35:49.380Z,101729.88
2022-08-20T11:38:19.080Z,101725.16
2022-08-20T11:40:47.711Z,101720.97
2022-08-20T11:43:17.450Z,101725.19
2022-08-20T11:45:55.532Z,101724.28
2022-08-20T11:48:26.473Z,101723.63
2022-08-20T11:50:55.286Z,101718.47
2022-08-20T11:53:23.715Z,101720.38
2022-08-20T11:55:55.366Z,101715.09
2022-08-20T11:58:23.950Z,101714.25
2022-08-20T12:00:53.890Z,101708.88
2022-08-20T12:03:22.405Z,101716.03
2022-08-20T12:05:51.042Z,101710.66
2022-08-20T12:08:27.854Z,101712.09
2022-08-20T12:10:59.845Z,101720.09
2022-08-20T12:13:48.180Z,101720.09
2022-08-20T12:16:21.036Z,101726.34
2022-08-20T12:18:52.543Z,101729.97
2022-08-20T12:21:23.016Z,101722.00
2022-08-20T12:23:51.334Z,101719.41
2022-08-20T12:26:20.632Z,101715.09
2022-08-20T12:28:49.136Z,101717.97
2022-08-20T12:31:17.746Z,101726.09
2022-08-20T12:33:50.335Z,101723.44
2022-08-20T12:36:18.916Z,101721.19
2022-08-20T12:38:47.480Z,101719.84
2022-08-20T12:41:16.176Z,101720.97
2022-08-20T12:43:44.631Z,101721.09
2022-08-20T12:46:13.232Z,101715.28
2022-08-20T12:48:42.187Z,101714.81
2022-08-20T12:51:10.476Z,101710.13
2022-08-20T12:53:38.779Z,101714.47
2022-08-20T12:56:07.512Z,101720.97
2022-08-20T12:58:36.693Z,101711.41
2022-08-20T13:01:05.277Z,101716.13
2022-08-20T13:03:43.141Z,101717.34
2022-08-20T13:06:13.608Z,101720.19
2022-08-20T13:08:42.015Z,101719.22
2022-08-20T13:11:10.334Z,101708.47
2022-08-20T13:13:39.927Z,101710.88
2022-08-20T13:16:08.309Z,101714.09
2022-08-20T13:18:38.862Z,101709.53
2022-08-20T13:21:07.285Z,101708.72
2022-08-20T13:23:35.705Z,101714.44
2022-08-20T13:26:07.968Z,101705.00
2022-08-20T13:28:36.459Z,101709.78
2022-08-20T13:31:04.852Z,101711.75
2022-08-20T13:33:34.832Z,101705.78
2022-08-20T13:36:03.551Z,101698.41
2022-08-20T13:38:37.112Z,101693.47
2022-08-20T13:41:05.612Z,101693.09
2022-08-20T13:43:34.172Z,101686.78
2022-08-20T13:46:04.970Z,101687.50
2022-08-20T13:48:34.022Z,101693.63
2022-08-20T13:51:02.568Z,101689.19
2022-08-20T13:53:35.685Z,101687.50
2022-08-20T13:56:04.462Z,101688.34
2022-08-20T13:58:34.613Z,101693.72
2022-08-20T14:01:03.117Z,101685.72
2022-08-20T14:03:33.115Z,101681.53
2022-08-20T14:06:03.035Z,101681.13
2022-08-20T14:08:31.671Z,101680.50
2022-08-20T14:11:00.175Z,101696.00
2022-08-20T14:13:28.862Z,101687.38
2022-08-20T14:15:57.279Z,101685.06
2022-08-20T14:18:26.487Z,101693.34
2022-08-20T14:20:54.924Z,101694.72
2022-08-20T14:23:23.312Z,101693.19
2022-08-20T14:25:51.668Z,101688.94
2022-08-20T14:28:23.961Z,101687.22
2022-08-20T14:30:55.499Z,101698.13
2022-08-20T14:33:24.316Z,101683.94
2022-08-20T14:35:53.317Z,101682.13
2022-08-20T14:38:21.713Z,101690.94
2022-08-20T14:40:50.691Z,101686.25
2022-08-20T14:43:20.330Z,101690.72
2022-08-20T14:45:49.008Z,101690.06
2022-08-20T14:48:17.306Z,101691.34
2022-08-20T14:50:45.656Z,101673.84
2022-08-20T14:53:14.044Z,101679.47
2022-08-20T14:55:42.426Z,101686.81
2022-08-20T14:58:13.036Z,101683.22
2022-08-20T15:00:41.893Z,101677.75
2022-08-20T15:03:13.489Z,101688.78
2022-08-20T15:05:42.528Z,101687.06
2022-08-20T15:08:12.757Z,101682.69
2022-08-20T15:10:44.396Z,101687.28
2022-08-20T15:13:14.684Z,101682.97
2022-08-20T15:15:43.591Z,101690.25
2022-08-20T15:18:12.275Z,101684.91
2022-08-20T15:20:40.635Z,101693.88
2022-08-20T15:23:08.932Z,101691.31
2022-08-20T15:25:38.098Z,101700.16
2022-08-20T15:28:09.651Z,101686.91
2022-08-20T15:30:40.885Z,101682.59
2022-08-20T15:33:10.256Z,101675.50
2022-08-20T15:35:39.088Z,101680.00
2022-08-20T15:38:07.477Z,101680.84
2022-08-20T15:40:36.182Z,101685.34
2022-08-20T15:43:05.841Z,101691.59
2022-08-20T15:45:35.582Z,101687.00
2022-08-20T15:48:17.044Z,101688.69
2022-08-20T15:50:48.476Z,101686.75
2022-08-20T15:53:24.831Z,101685.03
2022-08-20T15:56:04.227Z,101681.53
2022-08-20T15:58:54.976Z,101678.88
2022-08-20T16:01:36.256Z,101681.56
2022-08-20T16:04:21.810Z,101680.63
2022-08-20T16:06:54.407Z,101678.69
2022-08-20T16:09:38.289Z,101686.75
2022-08-20T16:12:23.788Z,101685.84
2022-08-20T16:15:00.321Z,101683.16
2022-08-20T16:17:37.408Z,101684.03
2022-08-20T16:20:13.767Z,101680.41
2022-08-20T16:22:46.134Z,101684.06
2022-08-20T16:25:17.747Z,101677.03
2022-08-20T16:28:10.035Z,101674.44
2022-08-20T16:30:48.685Z,101682.63
2022-08-20T16:33:31.898Z,101685.41
2022-08-20T16:36:27.329Z,101690.88
2022-08-20T16:39:04.678Z,101693.53
2022-08-20T16:41:42.016Z,101690.00
2022-08-20T16:44:23.314Z,101688.22
2022-08-20T16:46:58.827Z,101692.72
2022-08-20T16:49:29.953Z,101697.13
2022-08-20T16:51:59.754Z,101699.81
2022-08-20T16:54:31.093Z,101698.03
2022-08-20T16:57:05.533Z,101694.44
2022-08-20T16:59:34.447Z,101703.44
2022-08-20T17:02:10.375Z,101707.03
2022-08-20T17:04:53.273Z,101701.69
2022-08-20T17:07:43.268Z,101706.22
2022-08-20T17:10:35.995Z,101702.72
2022-08-20T17:13:13.848Z,101712.56
2022-08-20T17:15:44.117Z,101708.13
2022-08-20T17:18:23.952Z,101713.47
2022-08-20T17:20:54.363Z,101712.63
2022-08-20T17:23:23.131Z,101708.28
2022-08-20T17:26:00.794Z,101706.59
2022-08-20T17:28:35.706Z,101702.16
2022-08-20T17:31:04.330Z,101701.34
2022-08-20T17:33:39.842Z,101697.81
2022-08-20T17:36:21.227Z,101704.94
2022-08-20T17:38:52.742Z,101710.31
2022-08-20T17:41:26.771Z,101710.31
2022-08-20T17:44:31.176Z,101703.09
2022-08-20T17:47:11.947Z,101703.94
2022-08-20T17:49:51.702Z,101702.16
2022-08-20T17:52:39.757Z,101706.63
2022-08-20T17:55:08.576Z,101712.03
2022-08-20T17:57:40.477Z,101705.78
2022-08-20T18:00:15.835Z,101703.28
2022-08-20T18:02:44.900Z,101711.44
2022-08-20T18:05:20.062Z,101713.41
2022-08-20T18:08:03.607Z,101717.22
2022-08-20T18:10:40.252Z,101717.41
2022-08-20T18:13:19.678Z,101712.09
2022-08-20T18:15:56.275Z,101708.59
2022-08-20T18:18:30.909Z,101716.66
2022-08-20T18:21:41.368Z,101714.06
2022-08-20T18:24:17.847Z,101708.81
2022-08-20T18:26:54.259Z,101710.66
2022-08-20T18:29:28.273Z,101716.13
2022-08-20T18:32:00.139Z,101712.63
2022-08-20T18:34:28.932Z,101715.47
2022-08-20T18:37:06.496Z,101714.69
2022-08-20T18:39:45.548Z,101721.09
2022-08-20T18:42:32.199Z,101717.72
2022-08-20T18:45:01.234Z,101725.00
2022-08-20T18:47:48.641Z,101726.13
2022-08-20T18:50:26.932Z,101726.25
2022-08-20T18:53:13.585Z,101727.34
2022-08-20T18:55:44.885Z,101722.19
2022-08-20T18:58:28.388Z,101740.22
2022-08-20T19:00:58.160Z,101735.06
2022-08-20T19:03:37.620Z,101736.97
2022-08-20T19:06:37.617Z,101743.44
2022-08-20T19:09:25.864Z,101746.31
2022-08-20T19:12:09.713Z,101745.59
2022-08-20T19:14:54.578Z,101744.88
2022-08-20T19:17:33.208Z,101745.91
2022-08-20T19:20:16.204Z,101741.59
2022-08-20T19:22:47.039Z,101739.03
2022-08-20T19:25:29.844Z,101747.13
2022-08-20T19:28:07.629Z,101748.97
2022-08-20T19:30:41.559Z,101737.47
2022-08-20T19:33:10.842Z,101745.50
2022-08-20T19:35:40.257Z,101742.00
2022-08-20T19:38:16.217Z,101743.84
2022-08-20T19:40:46.394Z,101749.25
2022-08-20T19:43:18.410Z,101746.59
2022-08-20T19:45:52.773Z,101741.34
2022-08-20T19:48:35.572Z,101737.84
2022-08-20T19:51:28.078Z,101742.34
2022-08-20T19:53:57.942Z,101745.13
2022-08-20T19:56:28.067Z,101739.84
2022-08-20T19:59:09.700Z,101749.66
2022-08-20T20:01:38.296Z,101738.13
2022-08-20T20:04:15.058Z,101735.50
2022-08-20T20:06:46.619Z,101739.13
2022-08-20T20:09:28.593Z,101732.91
2022-08-20T20:12:10.902Z,101741.88
2022-08-20T20:14:54.132Z,101729.44
2022-08-20T20:17:27.749Z,101732.16
2022-08-20T20:20:00.221Z,101727.75
2022-08-20T20:22:34.292Z,101727.81
2022-08-20T20:25:21.953Z,101730.53
2022-08-20T20:27:56.767Z,101730.59
2022-08-20T20:30:36.037Z,101740.41
2022-08-20T20:33:16.624Z,101737.75
2022-08-20T20:35:46.427Z,101728.91
2022-08-20T20:38:28.463Z,101728.94
2022-08-20T20:40:59.982Z,101729.84
2022-08-20T20:43:41.340Z,101729.00
2022-08-20T20:46:14.838Z,101729.00
2022-08-20T20:48:46.997Z,101717.50
2022-08-20T20:51:36.318Z,101719.28
2022-08-20T20:54:21.661Z,101719.31
2022-08-20T20:57:08.741Z,101719.34
2022-08-20T20:59:37.555Z,101713.19
2022-08-20T21:02:11.998Z,101716.78
2022-08-20T21:04:44.719Z,101723.03
2022-08-20T21:07:19.134Z,101721.31
2022-08-20T21:09:55.697Z,101711.59
2022-08-20T21:12:24.899Z,101712.50
2022-08-20T21:14:53.701Z,101707.22
2022-08-20T21:17:23.032Z,101701.03
2022-08-20T21:19:52.338Z,101701.94
2022-08-20T21:22:20.937Z,101708.22
2022-08-20T21:24:51.456Z,101708.28
2022-08-20T21:27:22.098Z,101708.31
2022-08-20T21:29:51.722Z,101704.78
2022-08-20T21:32:23.572Z,101705.72
2022-08-20T21:34:52.165Z,101705.75
2022-08-20T21:37:20.692Z,101711.94
2022-08-20T21:39:49.110Z,101696.00
2022-08-20T21:42:28.477Z,101696.03
2022-08-20T21:44:59.504Z,101692.50
2022-08-20T21:47:28.160Z,101695.19
2022-08-20T21:49:59.787Z,101686.31
2022-08-20T21:52:28.189Z,101700.53
2022-08-20T21:54:57.074Z,101702.31
2022-08-20T21:57:34.278Z,101700.59
2022-08-20T22:00:21.956Z,101695.28
2022-08-20T22:02:51.441Z,101690.91
2022-08-20T22:05:19.774Z,101694.50
2022-08-20T22:07:48.142Z,101686.53
2022-08-20T22:10:16.619Z,101689.19
2022-08-20T22:12:45.567Z,101679.47
2022-08-20T22:15:13.913Z,101688.38
2022-08-20T22:17:42.204Z,101687.53
2022-08-20T22:20:10.809Z,101681.34
2022-08-20T22:22:39.283Z,101678.69
2022-08-20T22:25:08.046Z,101680.50
2022-08-20T22:27:41.100Z,101681.44
2022-08-20T22:30:10.289Z,101692.09
2022-08-20T22:32:52.107Z,101692.09
2022-08-20T22:35:20.909Z,101677.06
2022-08-20T22:37:49.496Z,101677.06
2022-08-20T22:40:17.878Z,101675.31
2022-08-20T22:42:46.396Z,101669.97
2022-08-20T22:45:14.969Z,101667.31
2022-08-20T22:47:44.183Z,101675.31
2022-08-20T22:50:14.459Z,101671.78
2022-08-20T22:52:43.613Z,101678.91
2022-08-20T22:55:12.896Z,101671.84
2022-08-20T22:57:41.665Z,101675.41
2022-08-20T23:00:14.095Z,101671.00
2022-08-20T23:02:44.415Z,101677.19
2022-08-20T23:05:16.977Z,101671.94
2022-08-20T23:07:45.554Z,101666.63
2022-08-20T23:10:14.531Z,101670.19
2022-08-20T23:12:44.321Z,101666.66
2022-08-20T23:15:14.651Z,101670.22
2022-08-20T23:17:43.442Z,101672.91
2022-08-20T23:20:13.892Z,101677.38
2022-08-20T23:22:42.618Z,101673.84
2022-08-20T23:25:12.181Z,101674.75
2022-08-20T23:27:49.600Z,101672.13
2022-08-20T23:30:20.377Z,101679.25
2022-08-20T23:32:49.280Z,101679.25
2022-08-20T23:35:18.705Z,101676.59
2022-08-20T23:37:51.883Z,101678.41
2022-08-20T23:40:28.219Z,101678.44
2022-08-20T23:42:59.062Z,101674.91
2022-08-20T23:45:28.616Z,101678.44
2022-08-20T23:47:57.017Z,101678.47
2022-08-20T23:50:28.725Z,101678.50
2022-08-20T23:52:58.116Z,101680.28
2022-08-20T23:55:27.400Z,101674.97
2022-08-20T23:57:56.556Z,101668.78
